createdAt,value
2022-10-17T00:02:06.188Z,96314.53
2022-10-17T00:07:04.306Z,96316.38
2022-10-17T00:09:30.861Z,96316.25
2022-10-17T00:11:57.378Z,96319.25
2022-10-17T00:14:23.952Z,96317.16
2022-10-17T00:16:50.535Z,96312.75
2022-10-17T00:19:17.065Z,96315.75
2022-10-17T00:21:43.640Z,96319.16
2022-10-17T00:24:10.205Z,96316.16
2022-10-17T00:26:36.850Z,96322.91
2022-10-17T00:29:03.600Z,96331.09
2022-10-17T00:31:30.943Z,96329.69
2022-10-17T00:33:57.626Z,96335.97
2022-10-17T00:36:25.903Z,96339.47
2022-10-17T00:38:58.667Z,96335.50
2022-10-17T00:41:28.917Z,96348.06
2022-10-17T00:44:08.184Z,96338.97
2022-10-17T00:46:37.342Z,96338.38
2022-10-17T00:49:07.982Z,96340.53
2022-10-17T00:51:41.003Z,96332.09
2022-10-17T00:54:09.047Z,96338.66
2022-10-17T00:56:35.823Z,96338.22
2022-10-17T00:59:03.194Z,96334.97
2022-10-17T01:01:30.053Z,96337.25
2022-10-17T01:03:58.131Z,96331.47
2022-10-17T01:06:24.686Z,96325.84
2022-10-17T01:08:51.252Z,96331.94
2022-10-17T01:11:30.710Z,96334.91
2022-10-17T01:14:09.029Z,96330.41
2022-10-17T01:16:38.223Z,96332.53
2022-10-17T01:19:07.670Z,96339.38
2022-10-17T01:21:51.834Z,96351.66
2022-10-17T01:24:57.992Z,96344.22
2022-10-17T01:27:36.412Z,96357.75
2022-10-17T01:30:21.905Z,96363.59
2022-10-17T01:33:06.639Z,96359.59
2022-10-17T01:35:43.167Z,96356.72
2022-10-17T01:38:20.091Z,96349.66
2022-10-17T01:40:56.546Z,96347.13
2022-10-17T01:43:39.187Z,96345.06
2022-10-17T01:46:31.715Z,96341.78
2022-10-17T01:49:01.684Z,96341.06
2022-10-17T01:51:33.338Z,96334.13
2022-10-17T01:54:06.762Z,96327.75
2022-10-17T01:56:35.988Z,96333.56
2022-10-17T01:59:10.059Z,96337.38
2022-10-17T02:01:39.024Z,96336.34
2022-10-17T02:04:09.811Z,96334.47
2022-10-17T02:06:37.042Z,96331.44
2022-10-17T02:09:35.975Z,96329.59
2022-10-17T02:12:25.913Z,96328.38
2022-10-17T02:15:11.632Z,96331.09
2022-10-17T02:18:03.202Z,96322.78
2022-10-17T02:20:37.770Z,96324.88
2022-10-17T02:23:33.667Z,96330.22
2022-10-17T02:26:10.115Z,96336.66
2022-10-17T02:28:47.367Z,96327.59
2022-10-17T02:31:17.019Z,96331.31
2022-10-17T02:34:07.972Z,96340.94
2022-10-17T02:36:39.599Z,96345.19
2022-10-17T02:39:09.447Z,96347.13
2022-10-17T02:41:38.709Z,96354.88
2022-10-17T02:44:07.278Z,96352.38
2022-10-17T02:46:35.546Z,96356.19
2022-10-17T02:49:28.093Z,96351.59
2022-10-17T02:52:12.739Z,96351.50
2022-10-17T02:54:52.947Z,96350.34
2022-10-17T02:57:38.046Z,96344.59
2022-10-17T03:00:11.995Z,96348.50
2022-10-17T03:02:40.331Z,96349.22
2022-10-17T03:05:10.087Z,96354.28
2022-10-17T03:07:37.604Z,96351.03
2022-10-17T03:10:05.186Z,96357.28
2022-10-17T03:12:32.522Z,96352.75
2022-10-17T03:14:59.625Z,96356.81
2022-10-17T03:17:26.813Z,96356.19
2022-10-17T03:19:53.423Z,96358.06
2022-10-17T03:22:21.433Z,96364.81
2022-10-17T03:24:48.016Z,96362.06
2022-10-17T03:27:16.178Z,96371.13
2022-10-17T03:29:45.094Z,96372.84
2022-10-17T03:32:13.148Z,96369.47
2022-10-17T03:34:39.779Z,96375.53
2022-10-17T03:37:06.454Z,96366.66
2022-10-17T03:39:35.175Z,96380.63
2022-10-17T03:42:02.074Z,96375.97
2022-10-17T03:44:29.210Z,96379.09
2022-10-17T03:46:57.851Z,96369.00
2022-10-17T03:49:24.487Z,96374.06
2022-10-17T03:51:51.223Z,96381.59
2022-10-17T03:54:19.133Z,96378.53
2022-10-17T03:56:46.150Z,96373.03
2022-10-17T03:59:18.389Z,96372.50
2022-10-17T04:01:53.233Z,96375.53
2022-10-17T04:04:21.604Z,96379.38
2022-10-17T04:06:48.284Z,96378.41
2022-10-17T04:09:15.162Z,96386.78
2022-10-17T04:12:04.582Z,96386.41
2022-10-17T04:14:32.999Z,96388.94
2022-10-17T04:17:00.314Z,96389.88
2022-10-17T04:19:28.118Z,96391.03
2022-10-17T04:21:55.140Z,96392.28
2022-10-17T04:24:22.028Z,96403.56
2022-10-17T04:26:52.230Z,96409.28
2022-10-17T04:29:21.739Z,96402.53
2022-10-17T04:31:52.275Z,96401.56
2022-10-17T04:34:42.184Z,96403.25
2022-10-17T04:37:08.836Z,96403.75
2022-10-17T04:39:36.493Z,96402.75
2022-10-17T04:42:03.165Z,96404.84
2022-10-17T04:44:31.012Z,96406.53
2022-10-17T04:46:58.971Z,96408.97
2022-10-17T04:49:27.954Z,96405.97
2022-10-17T04:52:00.021Z,96400.22
2022-10-17T04:54:32.383Z,96408.63
2022-10-17T04:57:07.730Z,96402.34
2022-10-17T04:59:35.271Z,96404.00
2022-10-17T05:02:17.230Z,96399.94
2022-10-17T05:04:46.708Z,96398.34
2022-10-17T05:07:15.736Z,96401.53
2022-10-17T05:09:58.761Z,96392.88
2022-10-17T05:12:25.910Z,96395.00
2022-10-17T05:14:53.861Z,96384.53
2022-10-17T05:17:22.358Z,96390.09
2022-10-17T05:19:50.003Z,96400.88
2022-10-17T05:22:17.096Z,96395.44
2022-10-17T05:24:44.096Z,96387.66
2022-10-17T05:27:11.969Z,96391.88
2022-10-17T05:29:39.687Z,96385.78
2022-10-17T05:32:18.752Z,96387.31
2022-10-17T05:34:46.499Z,96400.09
2022-10-17T05:37:13.976Z,96411.63
2022-10-17T05:39:50.638Z,96405.22
2022-10-17T05:42:18.660Z,96410.56
2022-10-17T05:44:47.847Z,96403.56
2022-10-17T05:47:17.159Z,96408.38
2022-10-17T05:49:48.662Z,96418.81
2022-10-17T05:52:20.018Z,96419.41
2022-10-17T05:55:08.150Z,96425.19
2022-10-17T05:57:34.794Z,96419.53
2022-10-17T06:00:04.849Z,96430.56
2022-10-17T06:02:40.820Z,96423.25
2022-10-17T06:05:08.531Z,96423.84
2022-10-17T06:07:35.848Z,96438.91
2022-10-17T06:10:03.976Z,96436.66
2022-10-17T06:12:30.772Z,96433.78
2022-10-17T06:14:58.941Z,96447.91
2022-10-17T06:17:26.267Z,96449.75
2022-10-17T06:19:52.818Z,96453.16
2022-10-17T06:22:19.493Z,96457.09
2022-10-17T06:24:46.511Z,96464.69
2022-10-17T06:27:14.274Z,96457.31
2022-10-17T06:29:41.432Z,96461.59
2022-10-17T06:32:11.165Z,96464.03
2022-10-17T06:34:41.273Z,96470.94
2022-10-17T06:37:08.669Z,96469.47
2022-10-17T06:39:36.775Z,96479.00
2022-10-17T06:42:11.571Z,96471.03
2022-10-17T06:44:56.806Z,96478.63
2022-10-17T06:47:38.423Z,96483.16
2022-10-17T06:50:22.169Z,96490.19
2022-10-17T06:52:59.129Z,96485.75
2022-10-17T06:55:53.883Z,96498.00
2022-10-17T06:58:30.318Z,96500.38
2022-10-17T07:01:10.081Z,96504.44
2022-10-17T07:03:37.293Z,96507.00
2022-10-17T07:06:04.854Z,96517.56
2022-10-17T07:08:31.714Z,96515.63
2022-10-17T07:11:16.174Z,96523.88
2022-10-17T07:13:43.210Z,96527.00
2022-10-17T07:16:10.829Z,96524.69
2022-10-17T07:18:40.026Z,96523.41
2022-10-17T07:21:08.533Z,96531.78
2022-10-17T07:23:37.004Z,96534.06
2022-10-17T07:26:09.261Z,96527.91
2022-10-17T07:28:40.141Z,96526.41
2022-10-17T07:31:21.317Z,96541.97
2022-10-17T07:33:48.925Z,96543.41
2022-10-17T07:36:15.722Z,96543.50
2022-10-17T07:38:42.610Z,96549.66
2022-10-17T07:41:11.493Z,96543.69
2022-10-17T07:43:38.764Z,96551.47
2022-10-17T07:46:08.295Z,96555.97
2022-10-17T07:48:35.238Z,96554.09
2022-10-17T07:51:03.564Z,96561.16
2022-10-17T07:53:30.407Z,96556.69
2022-10-17T07:55:57.001Z,96560.84
2022-10-17T07:58:23.561Z,96558.31
2022-10-17T08:00:51.219Z,96559.66
2022-10-17T08:03:17.993Z,96559.31
2022-10-17T08:05:44.551Z,96566.19
2022-10-17T08:08:11.082Z,96563.19
2022-10-17T08:10:37.667Z,96560.22
2022-10-17T08:13:04.309Z,96564.53
2022-10-17T08:15:32.124Z,96573.06
2022-10-17T08:17:59.457Z,96578.75
2022-10-17T08:20:26.529Z,96573.69
2022-10-17T08:22:56.641Z,96576.75
2022-10-17T08:25:23.366Z,96568.31
2022-10-17T08:27:50.044Z,96571.94
2022-10-17T08:30:16.893Z,96566.69
2022-10-17T08:32:43.699Z,96561.03
2022-10-17T08:35:10.550Z,96558.53
2022-10-17T08:37:37.102Z,96562.09
2022-10-17T08:40:04.398Z,96565.72
2022-10-17T08:43:09.464Z,96573.91
2022-10-17T08:45:52.102Z,96567.72
2022-10-17T08:48:24.033Z,96568.72
2022-10-17T08:51:14.441Z,96569.75
2022-10-17T08:53:51.323Z,96564.66
2022-10-17T08:56:43.974Z,96571.31
2022-10-17T08:59:19.952Z,96572.16
2022-10-17T09:02:01.218Z,96567.00
2022-10-17T09:04:42.170Z,96565.84
2022-10-17T09:07:25.047Z,96573.16
2022-10-17T09:10:15.820Z,96577.81
2022-10-17T09:13:09.975Z,96569.34
2022-10-17T09:16:01.160Z,96575.53
2022-10-17T09:18:32.651Z,96565.72
2022-10-17T09:21:18.087Z,96563.38
2022-10-17T09:23:59.491Z,96560.25
2022-10-17T09:26:36.562Z,96567.06
2022-10-17T09:29:11.651Z,96568.25
2022-10-17T09:32:04.052Z,96568.22
2022-10-17T09:34:32.814Z,96571.53
2022-10-17T09:37:01.536Z,96564.69
2022-10-17T09:39:32.980Z,96564.59
2022-10-17T09:42:01.520Z,96567.31
2022-10-17T09:44:38.674Z,96565.31
2022-10-17T09:47:23.684Z,96559.94
2022-10-17T09:49:50.969Z,96558.41
2022-10-17T09:52:27.820Z,96558.16
2022-10-17T09:55:04.886Z,96559.25
2022-10-17T09:57:56.281Z,96560.25
2022-10-17T10:00:26.978Z,96565.94
2022-10-17T10:03:17.640Z,96562.25
2022-10-17T10:06:03.327Z,96560.94
2022-10-17T10:08:33.811Z,96557.16
2022-10-17T10:11:04.517Z,96561.31
2022-10-17T10:13:33.425Z,96560.00
2022-10-17T10:16:29.805Z,96557.28
2022-10-17T10:18:56.393Z,96560.00
2022-10-17T10:21:27.893Z,96567.94
2022-10-17T10:24:13.006Z,96561.41
2022-10-17T10:26:44.665Z,96565.28
2022-10-17T10:29:32.095Z,96571.22
2022-10-17T10:32:09.122Z,96570.09
2022-10-17T10:34:39.176Z,96573.84
2022-10-17T10:37:17.186Z,96571.13
2022-10-17T10:39:53.234Z,96570.91
2022-10-17T10:42:39.422Z,96570.19
2022-10-17T10:45:29.298Z,96574.44
2022-10-17T10:48:06.366Z,96579.56
2022-10-17T10:50:56.109Z,96575.13
2022-10-17T10:53:34.110Z,96583.78
2022-10-17T10:56:08.311Z,96573.34
2022-10-17T10:58:49.766Z,96574.31
2022-10-17T11:01:22.566Z,96574.41
2022-10-17T11:04:01.326Z,96572.75
2022-10-17T11:06:34.262Z,96572.44
2022-10-17T11:09:12.267Z,96574.34
2022-10-17T11:11:50.025Z,96576.03
2022-10-17T11:14:34.840Z,96567.63
2022-10-17T11:17:12.045Z,96567.56
2022-10-17T11:19:51.717Z,96568.03
2022-10-17T11:22:26.623Z,96571.94
2022-10-17T11:25:04.315Z,96572.50
2022-10-17T11:27:33.773Z,96565.50
2022-10-17T11:30:00.493Z,96571.00
2022-10-17T11:32:34.377Z,96565.38
2022-10-17T11:35:17.101Z,96566.84
2022-10-17T11:37:50.794Z,96575.34
2022-10-17T11:40:31.837Z,96572.91
2022-10-17T11:43:24.581Z,96586.50
2022-10-17T11:45:58.130Z,96589.22
2022-10-17T11:49:13.077Z,96591.47
2022-10-17T11:52:05.670Z,96582.88
2022-10-17T11:54:41.761Z,96592.75
2022-10-17T11:57:50.465Z,96589.69
2022-10-17T12:00:39.264Z,96596.25
2022-10-17T12:03:21.176Z,96592.97
2022-10-17T12:05:59.802Z,96589.25
2022-10-17T12:08:38.445Z,96590.91
2022-10-17T12:11:17.703Z,96584.88
2022-10-17T12:13:52.602Z,96585.84
2022-10-17T12:16:21.732Z,96585.53
2022-10-17T12:18:52.858Z,96584.69
2022-10-17T12:21:19.392Z,96581.59
2022-10-17T12:23:53.860Z,96587.13
2022-10-17T12:26:29.031Z,96584.38
2022-10-17T12:28:56.689Z,96578.75
2022-10-17T12:31:29.604Z,96584.38
2022-10-17T12:34:01.970Z,96584.59
2022-10-17T12:36:28.670Z,96581.72
2022-10-17T12:39:01.145Z,96573.09
2022-10-17T12:41:40.271Z,96578.06
2022-10-17T12:44:12.720Z,96567.09
2022-10-17T12:47:01.127Z,96561.66
2022-10-17T12:49:43.531Z,96568.97
2022-10-17T12:52:27.176Z,96570.13
2022-10-17T12:55:11.554Z,96565.88
2022-10-17T12:57:50.338Z,96567.59
2022-10-17T13:00:37.600Z,96560.16
2022-10-17T13:03:20.401Z,96575.75
2022-10-17T13:05:55.743Z,96576.28
2022-10-17T13:08:32.178Z,96572.59
2022-10-17T13:11:00.195Z,96570.59
2022-10-17T13:13:38.251Z,96573.34
2022-10-17T13:16:05.232Z,96585.38
2022-10-17T13:18:31.983Z,96580.88
2022-10-17T13:21:05.170Z,96592.22
2022-10-17T13:23:37.890Z,96581.94
2022-10-17T13:26:14.471Z,96585.88
2022-10-17T13:28:42.579Z,96587.06
2022-10-17T13:31:28.858Z,96588.56
2022-10-17T13:33:57.913Z,96594.34
2022-10-17T13:36:25.566Z,96597.97
2022-10-17T13:38:52.352Z,96599.22
2022-10-17T13:41:36.171Z,96603.66
2022-10-17T13:44:11.563Z,96593.59
2022-10-17T13:46:39.988Z,96597.31
2022-10-17T13:49:18.809Z,96591.91
2022-10-17T13:51:47.804Z,96597.72
2022-10-17T13:54:40.177Z,96600.50
2022-10-17T13:57:20.575Z,96605.75
2022-10-17T13:59:51.528Z,96601.75
2022-10-17T14:02:24.924Z,96595.81
2022-10-17T14:05:23.007Z,96599.13
2022-10-17T14:08:10.912Z,96593.22
2022-10-17T14:10:38.840Z,96599.75
2022-10-17T14:13:10.925Z,96608.75
2022-10-17T14:15:37.712Z,96607.75
2022-10-17T14:18:07.906Z,96601.34
2022-10-17T14:23:33.202Z,96611.50
2022-10-17T14:26:12.319Z,96609.69
2022-10-17T14:28:40.003Z,96608.38
2022-10-17T14:31:14.111Z,96607.41
2022-10-17T14:33:49.663Z,96615.47
2022-10-17T14:36:17.499Z,96616.44
2022-10-17T14:38:49.652Z,96616.53
2022-10-17T14:41:42.042Z,96619.25
2022-10-17T14:44:19.213Z,96616.09
2022-10-17T14:46:50.977Z,96618.34
2022-10-17T14:49:32.664Z,96608.97
2022-10-17T14:52:18.544Z,96612.19
2022-10-17T14:54:49.676Z,96615.38
2022-10-17T14:57:28.224Z,96616.47
2022-10-17T14:59:56.532Z,96616.19
2022-10-17T15:02:30.635Z,96614.16
2022-10-17T15:04:57.464Z,96621.50
2022-10-17T15:07:24.525Z,96617.31
2022-10-17T15:09:53.155Z,96624.59
2022-10-17T15:12:22.589Z,96613.25
2022-10-17T15:14:50.491Z,96614.22
2022-10-17T15:17:37.291Z,96617.88
2022-10-17T15:20:04.043Z,96621.38
2022-10-17T15:22:31.584Z,96625.88
2022-10-17T15:24:58.408Z,96622.94
2022-10-17T15:27:26.420Z,96628.03
2022-10-17T15:29:53.203Z,96623.56
2022-10-17T15:32:19.860Z,96625.97
2022-10-17T15:34:46.381Z,96618.44
2022-10-17T15:37:22.464Z,96617.09
2022-10-17T15:39:54.518Z,96617.00
2022-10-17T15:42:23.234Z,96619.88
2022-10-17T15:44:50.231Z,96618.69
2022-10-17T15:47:31.037Z,96616.81
2022-10-17T15:49:58.193Z,96620.44
2022-10-17T15:52:25.266Z,96627.72
2022-10-17T15:54:52.239Z,96622.13
2022-10-17T15:57:24.309Z,96633.28
2022-10-17T15:59:52.436Z,96623.63
2022-10-17T16:02:20.871Z,96625.44
2022-10-17T16:04:48.734Z,96622.63
2022-10-17T16:07:15.295Z,96624.19
2022-10-17T16:09:41.841Z,96631.91
2022-10-17T16:12:16.363Z,96624.91
2022-10-17T16:14:43.069Z,96618.97
2022-10-17T16:17:13.692Z,96616.84
2022-10-17T16:19:40.346Z,96622.28
2022-10-17T16:22:18.974Z,96627.03
2022-10-17T16:24:45.742Z,96626.56
2022-10-17T16:27:12.333Z,96632.19
2022-10-17T16:29:38.946Z,96634.94
2022-10-17T16:32:05.566Z,96634.75
2022-10-17T16:34:32.314Z,96642.28
2022-10-17T16:36:58.894Z,96641.91
2022-10-17T16:39:25.454Z,96643.94
2022-10-17T16:41:54.798Z,96642.19
2022-10-17T16:44:24.310Z,96649.56
2022-10-17T16:46:50.883Z,96653.53
2022-10-17T16:49:18.223Z,96654.69
2022-10-17T16:51:44.840Z,96658.94
2022-10-17T16:54:11.422Z,96659.44
2022-10-17T16:56:38.078Z,96659.78
2022-10-17T16:59:04.693Z,96663.16
2022-10-17T17:01:31.350Z,96667.19
2022-10-17T17:03:58.134Z,96667.75
2022-10-17T17:06:27.994Z,96668.09
2022-10-17T17:08:56.136Z,96664.91
2022-10-17T17:11:25.310Z,96669.22
2022-10-17T17:13:52.068Z,96674.56
2022-10-17T17:16:24.208Z,96674.16
2022-10-17T17:18:55.602Z,96678.13
2022-10-17T17:21:22.716Z,96677.75
2022-10-17T17:23:49.653Z,96676.69
2022-10-17T17:26:19.535Z,96681.25
2022-10-17T17:28:46.822Z,96683.78
2022-10-17T17:31:17.557Z,96679.03
2022-10-17T17:33:46.590Z,96680.16
2022-10-17T17:36:17.147Z,96683.28
2022-10-17T17:38:44.271Z,96681.88
2022-10-17T17:41:16.069Z,96688.41
2022-10-17T17:43:44.147Z,96686.78
2022-10-17T17:46:10.957Z,96697.34
2022-10-17T17:48:39.087Z,96698.47
2022-10-17T17:51:07.208Z,96691.28
2022-10-17T17:53:35.314Z,96699.41
2022-10-17T17:56:06.997Z,96709.28
2022-10-17T17:58:35.011Z,96714.19
2022-10-17T18:01:08.176Z,96701.81
2022-10-17T18:03:34.987Z,96709.63
2022-10-17T18:06:01.543Z,96711.16
2022-10-17T18:08:28.114Z,96711.56
2022-10-17T18:10:56.371Z,96714.19
2022-10-17T18:13:22.965Z,96717.88
2022-10-17T18:15:51.826Z,96713.94
2022-10-17T18:18:18.964Z,96723.09
2022-10-17T18:20:45.723Z,96718.84
2022-10-17T18:23:12.366Z,96721.81
2022-10-17T18:25:39.114Z,96725.59
2022-10-17T18:28:05.684Z,96731.97
2022-10-17T18:30:34.530Z,96724.19
2022-10-17T18:33:01.640Z,96728.91
2022-10-17T18:35:28.304Z,96723.53
2022-10-17T18:37:56.942Z,96726.94
2022-10-17T18:40:23.508Z,96721.53
2022-10-17T18:42:50.067Z,96721.59
2022-10-17T18:45:17.809Z,96724.66
2022-10-17T18:47:47.251Z,96724.25
2022-10-17T18:50:14.717Z,96721.59
2022-10-17T18:52:41.316Z,96722.63
2022-10-17T18:55:08.277Z,96718.00
2022-10-17T18:57:34.833Z,96733.78
2022-10-17T19:00:01.429Z,96735.91
2022-10-17T19:02:28.069Z,96737.59
2022-10-17T19:04:54.621Z,96738.09
2022-10-17T19:07:21.174Z,96737.16
2022-10-17T19:09:48.763Z,96743.53
2022-10-17T19:12:15.751Z,96738.69
2022-10-17T19:14:42.265Z,96743.31
2022-10-17T19:17:08.862Z,96739.56
2022-10-17T19:19:36.030Z,96740.13
2022-10-17T19:22:03.437Z,96743.09
2022-10-17T19:24:30.024Z,96751.00
2022-10-17T19:26:59.382Z,96750.56
2022-10-17T19:29:27.974Z,96749.16
2022-10-17T19:34:22.279Z,96758.91
2022-10-17T19:36:48.951Z,96745.84
2022-10-17T19:39:19.238Z,96755.47
2022-10-17T19:41:47.518Z,96749.88
2022-10-17T19:44:14.858Z,96752.25
2022-10-17T19:46:44.241Z,96754.03
2022-10-17T19:49:11.602Z,96744.59
2022-10-17T19:51:38.740Z,96748.41
2022-10-17T19:54:05.818Z,96753.78
2022-10-17T19:56:37.688Z,96748.72
2022-10-17T19:59:06.109Z,96744.38
2022-10-17T20:01:35.133Z,96747.31
2022-10-17T20:04:02.297Z,96745.19
2022-10-17T20:06:28.928Z,96748.59
2022-10-17T20:08:55.632Z,96752.22
2022-10-17T20:11:26.181Z,96755.47
2022-10-17T20:13:54.089Z,96756.50
2022-10-17T20:16:26.486Z,96752.00
2022-10-17T20:18:56.202Z,96751.22
2022-10-17T20:21:27.351Z,96756.50
2022-10-17T20:23:54.467Z,96756.41
2022-10-17T20:26:36.998Z,96759.47
2022-10-17T20:29:08.221Z,96763.34
2022-10-17T20:31:35.114Z,96763.06
2022-10-17T20:34:01.783Z,96764.03
2022-10-17T20:36:28.425Z,96765.69
2022-10-17T20:38:56.915Z,96766.66
2022-10-17T20:41:24.437Z,96769.81
2022-10-17T20:43:52.361Z,96769.88
2022-10-17T20:46:34.962Z,96762.91
2022-10-17T20:49:03.763Z,96759.75
2022-10-17T20:51:30.756Z,96762.47
2022-10-17T20:56:31.524Z,96769.97
2022-10-17T20:59:03.499Z,96772.16
2022-10-17T21:01:32.044Z,96762.31
2022-10-17T21:04:06.132Z,96769.75
2022-10-17T21:06:38.442Z,96765.28
2022-10-17T21:09:06.063Z,96775.00
2022-10-17T21:11:32.630Z,96764.91
2022-10-17T21:14:03.412Z,96769.25
2022-10-17T21:16:31.664Z,96760.03
2022-10-17T21:18:58.876Z,96767.47
2022-10-17T21:21:30.943Z,96768.47
2022-10-17T21:24:00.785Z,96769.16
2022-10-17T21:26:28.267Z,96778.59
2022-10-17T21:28:55.199Z,96772.38
2022-10-17T21:31:24.040Z,96771.66
2022-10-17T21:33:53.237Z,96770.31
2022-10-17T21:36:21.558Z,96778.94
2022-10-17T21:38:50.497Z,96774.13
2022-10-17T21:41:19.619Z,96781.50
2022-10-17T21:43:46.509Z,96775.94
2022-10-17T21:46:16.636Z,96774.38
2022-10-17T21:48:43.984Z,96776.66
2022-10-17T21:51:12.798Z,96778.13
2022-10-17T21:53:39.567Z,96776.41
2022-10-17T21:56:09.879Z,96774.44
2022-10-17T21:58:36.442Z,96770.75
2022-10-17T22:01:08.819Z,96776.25
2022-10-17T22:03:44.084Z,96768.13
2022-10-17T22:06:38.820Z,96772.84
2022-10-17T22:09:04.211Z,96770.53
2022-10-17T22:11:33.854Z,96769.09
2022-10-17T22:14:06.809Z,96766.00
2022-10-17T22:16:34.326Z,96765.72
2022-10-17T22:19:05.946Z,96774.75
2022-10-17T22:21:35.494Z,96773.56
2022-10-17T22:24:06.095Z,96777.22
2022-10-17T22:26:34.427Z,96769.09
2022-10-17T22:29:01.636Z,96765.88
2022-10-17T22:31:28.348Z,96763.34
2022-10-17T22:33:55.974Z,96769.38
2022-10-17T22:36:22.892Z,96768.94
2022-10-17T22:38:50.214Z,96768.88
2022-10-17T22:41:17.561Z,96769.97
2022-10-17T22:43:44.623Z,96769.13
2022-10-17T22:46:14.067Z,96772.84
2022-10-17T22:48:40.736Z,96772.41
2022-10-17T22:51:07.649Z,96760.53
2022-10-17T22:53:35.144Z,96764.81
2022-10-17T22:56:13.790Z,96764.25
2022-10-17T22:58:41.435Z,96769.25
2022-10-17T23:01:14.483Z,96764.31
2022-10-17T23:03:41.256Z,96763.25
2022-10-17T23:06:07.799Z,96760.78
2022-10-17T23:08:35.001Z,96758.16
2022-10-17T23:11:01.725Z,96752.91
2022-10-17T23:13:29.310Z,96750.66
2022-10-17T23:15:57.071Z,96760.69
2022-10-17T23:18:25.707Z,96753.31
2022-10-17T23:20:53.110Z,96748.69
2022-10-17T23:23:20.234Z,96742.31
2022-10-17T23:25:47.555Z,96735.16
2022-10-17T23:28:14.273Z,96741.88
2022-10-17T23:30:41.195Z,96738.50
2022-10-17T23:33:08.085Z,96734.44
2022-10-17T23:35:35.625Z,96741.91
2022-10-17T23:38:02.415Z,96735.25
2022-10-17T23:40:29.086Z,96735.16
2022-10-17T23:42:55.703Z,96734.72
2022-10-17T23:45:22.347Z,96735.63
2022-10-17T23:47:48.996Z,96731.50
2022-10-17T23:50:16.548Z,96732.63
2022-10-17T23:52:43.489Z,96731.56
2022-10-17T23:55:10.225Z,96726.13
2022-10-17T23:57:37.086Z,96726.81
